Time;durP1;ratioP1;P1;durP2;ratioP2;P2;SDS_P1;SDS_P2;PMS_P1;PMS_P2;Temp;Humidity;BMP_temperature;BMP_pressure;BME280_temperature;BME280_humidity;BME280_pressure;Samples;Min_cycle;Max_cycle;Signal;HPM_P1;HPM_P2
2021/10/03 00:00:16;;;;;;;17.45;5.88;;;23.00;68.00;;;;;;5192066;28;20051;-83
2021/10/03 00:02:51;;;;;;;16.55;5.90;;;23.00;68.00;;;;;;5227531;28;20358;-83
2021/10/03 00:05:25;;;;;;;13.40;5.50;;;23.00;68.10;;;;;;5229115;28;20045;-82
2021/10/03 00:07:59;;;;;;;21.00;6.22;;;23.00;68.20;;;;;;5209074;28;20125;-83
2021/10/03 00:10:33;;;;;;;22.58;5.47;;;23.00;68.20;;;;;;5198809;28;20045;-83
2021/10/03 00:13:06;;;;;;;15.90;5.45;;;23.00;68.30;;;;;;5245905;28;20059;-83
2021/10/03 00:15:39;;;;;;;16.33;5.70;;;23.00;68.30;;;;;;5192087;28;20057;-83
2021/10/03 00:18:12;;;;;;;15.50;5.32;;;23.00;68.30;;;;;;5218906;28;20529;-83
2021/10/03 00:20:45;;;;;;;13.17;5.70;;;23.00;68.30;;;;;;5209783;28;20049;-83
2021/10/03 00:23:18;;;;;;;21.75;5.65;;;23.00;68.30;;;;;;5218532;28;20051;-84
2021/10/03 00:25:51;;;;;;;9.95;4.68;;;23.00;68.30;;;;;;5213715;28;20049;-83
2021/10/03 00:28:23;;;;;;;14.57;5.95;;;23.00;68.40;;;;;;5231347;28;20049;-83
2021/10/03 00:30:56;;;;;;;13.57;5.30;;;23.00;68.30;;;;;;5230816;28;20644;-83
2021/10/03 00:33:29;;;;;;;9.30;4.78;;;23.00;68.40;;;;;;5231400;28;20040;-84
2021/10/03 00:36:02;;;;;;;8.10;4.45;;;23.00;68.40;;;;;;5232291;28;20048;-83
2021/10/03 00:38:35;;;;;;;10.90;5.03;;;23.00;68.40;;;;;;5211390;28;20152;-83
2021/10/03 00:41:07;;;;;;;11.53;5.93;;;23.00;68.40;;;;;;5212148;28;20053;-83
2021/10/03 00:43:41;;;;;;;12.25;5.13;;;23.00;68.40;;;;;;5225773;28;20486;-84
2021/10/03 00:46:15;;;;;;;10.77;5.10;;;23.00;68.40;;;;;;5211149;28;20056;-83
2021/10/03 00:48:48;;;;;;;12.88;5.20;;;23.00;68.40;;;;;;5216759;28;20414;-83
2021/10/03 00:51:20;;;;;;;9.15;5.25;;;23.00;68.40;;;;;;5229660;28;20053;-84
2021/10/03 00:53:53;;;;;;;8.70;4.83;;;23.00;68.30;;;;;;5207256;28;20078;-84
2021/10/03 00:56:26;;;;;;;9.83;5.10;;;23.00;68.30;;;;;;5216067;28;20070;-84
2021/10/03 00:58:59;;;;;;;9.95;4.57;;;23.00;68.40;;;;;;5231090;28;20390;-83
2021/10/03 01:01:32;;;;;;;10.57;5.13;;;23.00;68.40;;;;;;5214673;28;20045;-83
2021/10/03 01:04:04;;;;;;;;;;;23.00;68.40;;;;;;5234634;28;20494;-83
2021/10/03 01:06:37;;;;;;;11.27;4.40;;;23.00;68.40;;;;;;5217355;28;20018;-83
2021/10/03 01:09:10;;;;;;;10.63;4.93;;;23.00;68.50;;;;;;5179151;28;20059;-83
2021/10/03 01:11:42;;;;;;;5.97;4.37;;;23.00;68.50;;;;;;5232065;28;20418;-83
2021/10/03 01:14:16;;;;;;;12.35;4.85;;;23.00;68.50;;;;;;5214025;28;20059;-83
2021/10/03 01:16:50;;;;;;;9.00;4.68;;;23.00;68.40;;;;;;5227096;28;20044;-84
2021/10/03 01:19:22;;;;;;;9.15;4.80;;;23.00;68.50;;;;;;5228216;28;20048;-83
2021/10/03 01:21:55;;;;;;;8.98;4.65;;;23.00;68.50;;;;;;5202264;28;20052;-84
2021/10/03 01:24:29;;;;;;;10.18;4.38;;;23.00;68.50;;;;;;5226951;28;20060;-83
2021/10/03 01:27:03;;;;;;;7.57;4.72;;;23.00;68.50;;;;;;5208127;28;20048;-84
2021/10/03 01:29:36;;;;;;;;;;;23.10;68.50;;;;;;5210423;28;20048;-83
2021/10/03 01:32:09;;;;;;;13.45;6.05;;;23.00;68.50;;;;;;5212593;28;20397;-83
2021/10/03 01:34:42;;;;;;;17.33;4.88;;;23.00;68.50;;;;;;5224348;28;20056;-83
2021/10/03 01:37:15;;;;;;;13.60;4.97;;;23.00;68.60;;;;;;5230042;28;20387;-83
2021/10/03 01:39:48;;;;;;;7.97;4.50;;;23.00;68.50;;;;;;5228286;28;20060;-82
2021/10/03 01:42:21;;;;;;;;;;;23.00;68.50;;;;;;5205819;28;20040;-84
2021/10/03 01:44:53;;;;;;;7.10;3.80;;;23.00;68.40;;;;;;5208810;28;19924;-83
2021/10/03 01:47:26;;;;;;;6.43;4.28;;;23.00;66.60;;;;;;5211154;28;20521;-83
2021/10/03 01:49:58;;;;;;;11.98;3.58;;;23.00;65.60;;;;;;5213488;28;20379;-83
2021/10/03 01:52:31;;;;;;;4.65;3.22;;;23.00;65.10;;;;;;5185733;28;20056;-83
2021/10/03 01:55:04;;;;;;;13.37;3.30;;;22.90;64.80;;;;;;5227242;28;20074;-84
2021/10/03 01:57:37;;;;;;;5.80;3.40;;;22.90;64.80;;;;;;5226973;28;20305;-83
2021/10/03 02:00:10;;;;;;;8.18;3.58;;;22.90;64.80;;;;;;5227811;28;20044;-83
2021/10/03 02:02:45;;;;;;;7.40;3.33;;;22.90;64.60;;;;;;5192533;28;20481;-83
2021/10/03 02:05:18;;;;;;;5.03;3.10;;;22.90;64.70;;;;;;5226800;28;20390;-83
2021/10/03 02:07:50;;;;;;;9.00;3.15;;;22.80;64.40;;;;;;5213600;28;20061;-83
2021/10/03 02:10:25;;;;;;;4.53;2.90;;;22.80;64.30;;;;;;5178381;28;20060;-83
2021/10/03 02:12:58;;;;;;;4.72;2.90;;;22.80;64.30;;;;;;5210748;28;20055;-84
2021/10/03 02:15:31;;;;;;;5.37;3.10;;;22.80;64.40;;;;;;5191135;28;20044;-83
2021/10/03 02:18:09;;;;;;;7.07;3.50;;;22.80;64.20;;;;;;5206388;28;20045;-83
2021/10/03 02:20:42;;;;;;;5.43;2.83;;;22.80;64.20;;;;;;5228458;28;20049;-83
2021/10/03 02:23:15;;;;;;;3.83;3.08;;;22.80;64.10;;;;;;5203294;28;20048;-83
2021/10/03 02:25:48;;;;;;;3.60;2.87;;;22.70;64.10;;;;;;5215487;28;20060;-84
2021/10/03 02:28:23;;;;;;;5.53;3.22;;;22.70;64.10;;;;;;5221490;28;20063;-83
2021/10/03 02:30:58;;;;;;;5.55;3.25;;;22.70;64.20;;;;;;5214832;28;20073;-84
2021/10/03 02:33:31;;;;;;;6.22;3.22;;;22.70;64.10;;;;;;5218420;28;20216;-83
2021/10/03 02:36:04;;;;;;;5.88;2.92;;;22.70;64.20;;;;;;5219188;28;20045;-83
2021/10/03 02:38:37;;;;;;;3.45;2.67;;;22.70;64.10;;;;;;5232094;28;20048;-83
2021/10/03 02:41:12;;;;;;;4.93;3.58;;;22.70;64.10;;;;;;5195938;28;20044;-83
2021/10/03 02:43:47;;;;;;;3.47;2.60;;;22.70;64.30;;;;;;5222810;28;20055;-83
2021/10/03 02:46:21;;;;;;;4.47;2.72;;;22.70;64.20;;;;;;5213809;28;20060;-83
2021/10/03 02:48:55;;;;;;;4.10;3.22;;;22.70;64.30;;;;;;5212031;28;20601;-83
2021/10/03 02:51:28;;;;;;;;;;;22.60;64.30;;;;;;5217083;28;20491;-83
2021/10/03 02:54:01;;;;;;;6.18;2.70;;;22.60;64.10;;;;;;5215418;28;20295;-83
2021/10/03 02:56:33;;;;;;;4.07;3.25;;;22.60;64.30;;;;;;5208439;28;20687;-84
2021/10/03 02:59:06;;;;;;;3.13;2.40;;;22.60;64.20;;;;;;5235865;28;20041;-83
2021/10/03 03:01:39;;;;;;;3.88;2.92;;;22.60;64.20;;;;;;5233591;28;20314;-82
2021/10/03 03:04:11;;;;;;;4.97;3.08;;;22.60;64.20;;;;;;5233079;28;20059;-83
2021/10/03 03:06:44;;;;;;;3.03;2.45;;;22.50;64.10;;;;;;5228359;28;20053;-83
2021/10/03 03:09:17;;;;;;;6.88;2.95;;;22.50;64.40;;;;;;5234729;28;20601;-83
2021/10/03 03:11:49;;;;;;;5.70;2.85;;;22.50;64.30;;;;;;5208665;28;20049;-83
2021/10/03 03:14:22;;;;;;;5.40;2.67;;;22.50;64.20;;;;;;5229787;28;20059;-83
2021/10/03 03:16:55;;;;;;;5.35;2.90;;;22.50;64.20;;;;;;5209517;28;20111;-83
2021/10/03 03:19:27;;;;;;;4.32;2.60;;;22.50;64.10;;;;;;5196687;28;20044;-83
2021/10/03 03:21:59;;;;;;;4.60;2.75;;;22.50;64.10;;;;;;5212887;28;20119;-83
2021/10/03 03:24:32;;;;;;;3.22;2.10;;;22.50;64.20;;;;;;5208610;28;20239;-83
2021/10/03 03:27:05;;;;;;;7.35;3.50;;;22.50;64.00;;;;;;5192760;28;20044;-83
2021/10/03 03:29:38;;;;;;;6.50;2.80;;;22.50;64.00;;;;;;5209828;28;20433;-83
2021/10/03 03:32:10;;;;;;;8.63;2.78;;;22.50;64.00;;;;;;5229396;28;20409;-83
2021/10/03 03:34:43;;;;;;;3.17;2.83;;;22.50;64.10;;;;;;5211311;28;20048;-84
2021/10/03 03:37:16;;;;;;;4.13;2.50;;;22.40;64.10;;;;;;5209461;28;20049;-83
2021/10/03 03:39:48;;;;;;;3.60;2.87;;;22.40;64.00;;;;;;5213512;28;20414;-83
2021/10/03 03:42:21;;;;;;;3.53;2.67;;;22.40;64.00;;;;;;5224734;28;20045;-83
2021/10/03 03:44:53;;;;;;;6.68;2.67;;;22.40;64.00;;;;;;5232543;28;20060;-84
2021/10/03 03:47:26;;;;;;;7.05;2.78;;;22.50;64.10;;;;;;5226611;28;20048;-83
2021/10/03 03:49:58;;;;;;;2.72;2.38;;;22.40;63.90;;;;;;5207970;28;20585;-83
2021/10/03 03:52:31;;;;;;;3.77;2.73;;;22.40;64.00;;;;;;5206572;28;20406;-83
2021/10/03 03:55:05;;;;;;;3.63;2.83;;;22.40;63.90;;;;;;5211560;28;20052;-83
2021/10/03 03:57:37;;;;;;;3.17;2.58;;;22.40;63.90;;;;;;5233009;28;20545;-83
2021/10/03 04:00:11;;;;;;;4.57;2.67;;;22.40;63.90;;;;;;5206216;28;20045;-83
2021/10/03 04:02:44;;;;;;;2.63;2.40;;;22.40;63.70;;;;;;5224830;28;20040;-82
2021/10/03 04:05:16;;;;;;;4.53;2.83;;;22.40;63.70;;;;;;5207552;28;20052;-83
2021/10/03 04:07:49;;;;;;;5.53;3.10;;;22.40;63.70;;;;;;5208229;28;20044;-83
2021/10/03 04:10:21;;;;;;;4.35;2.60;;;22.40;63.70;;;;;;5208742;28;20052;-83
2021/10/03 04:12:54;;;;;;;3.85;2.63;;;22.40;63.80;;;;;;5193332;28;20502;-83
2021/10/03 04:15:27;;;;;;;3.70;2.60;;;22.40;63.80;;;;;;5202302;28;20059;-83
2021/10/03 04:17:59;;;;;;;2.80;2.25;;;22.40;63.80;;;;;;5208732;28;20040;-83
2021/10/03 04:20:32;;;;;;;6.78;2.53;;;22.40;63.40;;;;;;5208880;28;20048;-83
2021/10/03 04:23:04;;;;;;;5.22;3.03;;;22.40;63.60;;;;;;5231455;28;20049;-83
2021/10/03 04:25:37;;;;;;;2.50;2.30;;;22.40;63.60;;;;;;5211657;28;20052;-83
2021/10/03 04:28:10;;;;;;;5.45;2.90;;;22.30;63.50;;;;;;5232458;28;20386;-83
2021/10/03 04:30:42;;;;;;;4.30;2.85;;;22.40;63.60;;;;;;5230745;28;20071;-83
2021/10/03 04:33:15;;;;;;;3.00;2.55;;;22.30;63.50;;;;;;5192794;28;20063;-83
2021/10/03 04:35:47;;;;;;;4.47;2.42;;;22.40;63.90;;;;;;5208349;28;20045;-84
2021/10/03 04:38:20;;;;;;;3.47;2.67;;;22.30;63.90;;;;;;5194882;28;20047;-83
2021/10/03 04:40:52;;;;;;;3.92;2.60;;;22.40;64.10;;;;;;5222264;28;20036;-83
2021/10/03 04:43:25;;;;;;;3.13;2.42;;;22.30;63.90;;;;;;5220103;28;20045;-83
2021/10/03 04:45:57;;;;;;;2.90;2.38;;;22.40;64.00;;;;;;5227268;28;20052;-83
2021/10/03 04:48:30;;;;;;;5.45;3.00;;;22.40;64.10;;;;;;5244385;28;20422;-83
2021/10/03 04:51:02;;;;;;;5.93;3.10;;;22.40;64.10;;;;;;5219033;28;20502;-83
2021/10/03 04:53:35;;;;;;;2.88;2.30;;;22.50;64.20;;;;;;5226875;28;20618;-83
2021/10/03 04:56:07;;;;;;;5.07;2.33;;;22.50;64.30;;;;;;5207359;28;20048;-83
2021/10/03 04:58:40;;;;;;;6.17;2.63;;;22.50;64.30;;;;;;5226210;28;20056;-83
2021/10/03 05:01:14;;;;;;;7.07;2.05;;;22.50;64.40;;;;;;5209456;28;20052;-83
2021/10/03 05:03:47;;;;;;;4.45;2.45;;;22.60;64.50;;;;;;5207158;28;20051;-83
2021/10/03 05:06:19;;;;;;;5.65;2.42;;;22.60;64.40;;;;;;5195854;28;20413;-83
2021/10/03 05:08:53;;;;;;;6.55;2.25;;;22.60;64.50;;;;;;5241231;28;20052;-84
2021/10/03 05:11:25;;;;;;;3.60;2.22;;;22.60;64.50;;;;;;5211820;28;20065;-84
2021/10/03 05:14:05;;;;;;;3.80;2.08;;;22.60;65.20;;;;;;5237856;28;20044;-84
2021/10/03 05:16:37;;;;;;;3.50;2.60;;;22.70;64.60;;;;;;5221830;28;20040;-83
2021/10/03 05:19:10;;;;;;;7.72;2.60;;;22.60;64.60;;;;;;5221147;28;20546;-84
2021/10/03 05:21:42;;;;;;;6.30;2.63;;;22.70;64.60;;;;;;5220767;28;20052;-84
2021/10/03 05:24:15;;;;;;;5.10;2.40;;;22.70;64.70;;;;;;5205208;28;20045;-84
2021/10/03 05:26:48;;;;;;;3.50;2.33;;;22.70;64.70;;;;;;5200410;28;20611;-84
2021/10/03 05:29:20;;;;;;;5.53;2.55;;;22.70;64.70;;;;;;5225349;28;20653;-85
2021/10/03 05:31:53;;;;;;;2.85;2.25;;;22.70;64.70;;;;;;5222774;28;20062;-84
2021/10/03 05:34:26;;;;;;;5.50;2.20;;;22.70;64.70;;;;;;5221754;28;20059;-84
2021/10/03 05:36:58;;;;;;;5.72;2.67;;;22.80;64.80;;;;;;5200133;28;20036;-84
2021/10/03 05:39:31;;;;;;;5.37;2.57;;;22.80;64.70;;;;;;5235317;28;20275;-84
2021/10/03 05:42:03;;;;;;;3.40;2.50;;;22.80;64.80;;;;;;5195562;28;20052;-84
2021/10/03 05:44:36;;;;;;;3.97;2.07;;;22.80;64.80;;;;;;5209006;28;20674;-84
2021/10/03 05:47:08;;;;;;;3.50;2.47;;;22.80;64.90;;;;;;5212163;28;20055;-84
2021/10/03 05:49:41;;;;;;;2.97;2.17;;;22.80;64.90;;;;;;5214232;28;20414;-84
2021/10/03 05:52:13;;;;;;;3.15;2.35;;;22.80;64.90;;;;;;5186849;28;20095;-83
2021/10/03 05:54:46;;;;;;;3.78;2.22;;;22.80;64.90;;;;;;5185355;28;20044;-84
2021/10/03 05:57:18;;;;;;;3.20;2.08;;;22.80;64.90;;;;;;5221654;28;20052;-84
2021/10/03 05:59:51;;;;;;;4.32;2.30;;;22.80;64.90;;;;;;5222941;28;20127;-84
2021/10/03 06:02:23;;;;;;;3.83;2.40;;;22.80;65.00;;;;;;5205050;28;20048;-84
2021/10/03 06:04:56;;;;;;;5.67;2.67;;;22.80;65.00;;;;;;5193584;28;20048;-84
2021/10/03 06:07:29;;;;;;;3.95;2.20;;;22.80;65.00;;;;;;5223316;28;20306;-83
2021/10/03 06:10:03;;;;;;;3.50;2.92;;;22.80;65.00;;;;;;5203485;28;20213;-83
2021/10/03 06:12:36;;;;;;;3.08;2.10;;;22.80;65.10;;;;;;5219882;28;20410;-83
2021/10/03 06:15:09;;;;;;;5.32;2.20;;;22.80;65.10;;;;;;5219402;28;20053;-83
2021/10/03 06:17:43;;;;;;;3.15;2.22;;;22.80;65.10;;;;;;5198575;28;20052;-83
2021/10/03 06:20:16;;;;;;;;;;;22.80;65.10;;;;;;5219451;28;20037;-83
2021/10/03 06:22:48;;;;;;;4.63;2.05;;;22.80;65.10;;;;;;5216005;28;20142;-83
2021/10/03 06:25:20;;;;;;;3.00;2.20;;;22.80;65.20;;;;;;5224836;28;20083;-83
2021/10/03 06:27:53;;;;;;;8.57;2.33;;;22.80;65.10;;;;;;5218220;28;20053;-83
2021/10/03 06:30:26;;;;;;;8.93;2.03;;;22.80;65.10;;;;;;5184943;28;20462;-83
2021/10/03 06:33:00;;;;;;;6.30;2.33;;;22.80;65.10;;;;;;5215700;28;20064;-83
2021/10/03 06:35:33;;;;;;;6.25;2.10;;;22.80;65.10;;;;;;5201556;28;20067;-83
2021/10/03 06:38:05;;;;;;;6.05;2.50;;;22.80;65.10;;;;;;5199165;28;20053;-83
2021/10/03 06:40:38;;;;;;;6.50;2.67;;;22.90;65.20;;;;;;5203066;28;20357;-83
2021/10/03 06:43:10;;;;;;;6.30;2.25;;;22.90;65.20;;;;;;5180577;28;20051;-83
2021/10/03 06:45:43;;;;;;;3.95;2.50;;;22.80;65.20;;;;;;5193578;28;20049;-83
2021/10/03 06:48:16;;;;;;;5.17;2.40;;;22.90;65.20;;;;;;5217154;28;20059;-84
2021/10/03 06:50:48;;;;;;;7.97;2.40;;;22.90;65.20;;;;;;5211241;28;20056;-84
2021/10/03 06:53:21;;;;;;;4.85;2.03;;;22.90;65.20;;;;;;5227140;28;20051;-83
2021/10/03 06:55:53;;;;;;;5.30;2.53;;;22.90;65.20;;;;;;5206218;28;20059;-83
2021/10/03 06:58:26;;;;;;;7.53;2.35;;;22.90;65.20;;;;;;5197830;28;25136;-84
2021/10/03 07:00:58;;;;;;;5.15;2.47;;;22.90;65.30;;;;;;5215936;28;20059;-83
2021/10/03 07:03:31;;;;;;;7.10;2.73;;;22.90;65.30;;;;;;5209408;28;20398;-82
2021/10/03 07:06:04;;;;;;;3.15;2.28;;;22.90;65.30;;;;;;5218301;28;20053;-83
2021/10/03 07:08:39;;;;;;;5.90;2.92;;;22.90;65.30;;;;;;5214061;28;21188;-83
2021/10/03 07:11:12;;;;;;;4.05;2.47;;;22.90;65.30;;;;;;5195684;28;20048;-83
2021/10/03 07:13:44;;;;;;;7.78;2.30;;;22.90;65.30;;;;;;5200437;28;20489;-83
2021/10/03 07:16:18;;;;;;;9.73;2.22;;;22.90;65.30;;;;;;5217916;28;20055;-83
2021/10/03 07:18:50;;;;;;;6.82;2.28;;;22.90;65.40;;;;;;5200333;28;20044;-83
2021/10/03 07:21:22;;;;;;;5.93;2.05;;;22.90;65.40;;;;;;5186999;28;20045;-83
2021/10/03 07:23:55;;;;;;;6.13;3.03;;;23.00;65.50;;;;;;5214131;28;20587;-83
2021/10/03 07:26:27;;;;;;;3.75;2.20;;;23.00;65.50;;;;;;5201944;28;20049;-83
2021/10/03 07:29:00;;;;;;;4.70;2.30;;;23.00;65.60;;;;;;5204321;28;20544;-83
2021/10/03 07:31:33;;;;;;;11.55;2.65;;;23.00;65.60;;;;;;5223138;28;20455;-81
2021/10/03 07:34:06;;;;;;;;;;;23.00;65.20;;;;;;5225469;28;20041;-81
2021/10/03 07:36:38;;;;;;;8.13;2.85;;;22.90;64.90;;;;;;5203037;28;19931;-80
2021/10/03 07:39:11;;;;;;;15.80;3.58;;;23.00;65.10;;;;;;5215914;28;20402;-81
2021/10/03 07:41:44;;;;;;;14.02;3.10;;;23.00;64.70;;;;;;5221231;28;20049;-80
2021/10/03 07:44:17;;;;;;;6.93;3.67;;;23.00;64.60;;;;;;5219187;28;20052;-80
2021/10/03 07:46:50;;;;;;;7.85;2.50;;;22.90;63.90;;;;;;5214848;28;20048;-81
2021/10/03 07:49:22;;;;;;;5.47;3.00;;;23.00;64.70;;;;;;5216672;28;20474;-80
2021/10/03 07:51:55;;;;;;;9.77;3.03;;;23.00;64.00;;;;;;5197564;28;20044;-81
2021/10/03 07:54:28;;;;;;;9.13;2.95;;;23.00;64.10;;;;;;5196642;28;20052;-80
2021/10/03 07:57:00;;;;;;;6.47;3.25;;;22.90;63.70;;;;;;5217205;28;20045;-80
2021/10/03 07:59:33;;;;;;;7.53;2.97;;;22.90;63.60;;;;;;5215287;28;20041;-80
2021/10/03 08:02:06;;;;;;;7.22;3.45;;;22.90;63.50;;;;;;5222026;28;20056;-80
2021/10/03 08:04:39;;;;;;;5.97;2.58;;;22.90;63.50;;;;;;5216346;28;20044;-80
2021/10/03 08:07:11;;;;;;;11.88;2.78;;;22.90;63.50;;;;;;5222833;28;20052;-80
2021/10/03 08:09:44;;;;;;;6.32;3.22;;;22.90;63.40;;;;;;5216333;28;20489;-80
2021/10/03 08:12:17;;;;;;;8.07;3.47;;;22.90;63.30;;;;;;5188389;28;20052;-80
2021/10/03 08:14:52;;;;;;;5.18;2.97;;;22.90;63.40;;;;;;5213578;28;20576;-80
2021/10/03 08:17:25;;;;;;;7.90;2.70;;;22.90;63.50;;;;;;5205034;28;20041;-80
2021/10/03 08:19:57;;;;;;;10.10;3.10;;;22.90;63.70;;;;;;5199221;28;20625;-80
2021/10/03 08:22:30;;;;;;;6.47;3.08;;;22.90;63.90;;;;;;5214542;28;20044;-80
2021/10/03 08:25:05;;;;;;;4.05;3.10;;;22.90;64.10;;;;;;5213132;28;20039;-80
2021/10/03 08:27:38;;;;;;;6.72;3.20;;;22.90;64.10;;;;;;5194079;28;20320;-80
2021/10/03 08:30:12;;;;;;;9.47;2.83;;;22.90;63.70;;;;;;5215464;28;20058;-80
2021/10/03 08:32:45;;;;;;;4.05;2.67;;;22.90;63.30;;;;;;5216628;28;20048;-81
2021/10/03 08:35:18;;;;;;;7.22;3.33;;;22.90;63.30;;;;;;5216463;28;20494;-79
2021/10/03 08:37:50;;;;;;;5.63;2.78;;;22.90;63.00;;;;;;5198941;28;20045;-80
2021/10/03 08:40:23;;;;;;;5.20;2.70;;;22.80;63.00;;;;;;5197867;28;20044;-80
2021/10/03 08:42:55;;;;;;;5.18;3.08;;;22.80;63.10;;;;;;5216269;28;20048;-80
2021/10/03 08:45:28;;;;;;;5.88;2.95;;;22.90;63.20;;;;;;5196772;28;20044;-80
2021/10/03 08:48:01;;;;;;;5.75;2.70;;;22.80;62.50;;;;;;5202279;28;20049;-80
2021/10/03 08:50:33;;;;;;;4.43;2.50;;;22.80;62.80;;;;;;5213001;28;20053;-80
2021/10/03 08:53:06;;;;;;;4.38;2.67;;;22.80;62.90;;;;;;5204768;28;20049;-80
2021/10/03 08:55:38;;;;;;;5.63;2.38;;;22.90;63.00;;;;;;5206380;28;20057;-80
2021/10/03 08:58:11;;;;;;;3.00;2.42;;;22.80;62.80;;;;;;5214883;28;20055;-80
2021/10/03 09:00:48;;;;;;;5.28;2.42;;;22.80;62.70;;;;;;5217520;28;20041;-80
2021/10/03 09:03:21;;;;;;;4.53;2.75;;;22.90;62.70;;;;;;5196022;28;20285;-81
2021/10/03 09:05:59;;;;;;;5.05;3.08;;;22.80;62.80;;;;;;5206007;28;20049;-81
2021/10/03 09:08:38;;;;;;;6.28;2.75;;;22.90;62.80;;;;;;5179186;28;20063;-80
2021/10/03 09:11:13;;;;;;;4.18;2.90;;;22.80;61.90;;;;;;5212746;28;20052;-81
2021/10/03 09:13:51;;;;;;;4.40;2.97;;;22.80;60.80;;;;;;5217498;28;20052;-80
2021/10/03 09:16:34;;;;;;;3.10;2.63;;;22.80;60.80;;;;;;5221826;28;20059;-80
2021/10/03 09:19:13;;;;;;;5.32;3.10;;;22.90;60.90;;;;;;5225044;28;20048;-79
2021/10/03 09:22:11;;;;;;;4.00;2.85;;;22.80;61.20;;;;;;5214029;28;20048;-79
2021/10/03 09:24:44;;;;;;;4.63;2.83;;;22.80;61.20;;;;;;5222959;28;20048;-80
2021/10/03 09:27:16;;;;;;;5.45;2.45;;;22.80;61.10;;;;;;5222497;28;20091;-82
2021/10/03 09:29:49;;;;;;;3.58;2.50;;;22.80;59.70;;;;;;5210100;28;20048;-80
2021/10/03 09:32:22;;;;;;;3.13;2.50;;;22.80;58.10;;;;;;5228009;28;20048;-79
2021/10/03 09:34:59;;;;;;;5.40;2.70;;;22.80;57.70;;;;;;5216176;28;20044;-79
2021/10/03 09:37:32;;;;;;;3.40;2.65;;;22.80;57.90;;;;;;5200746;28;20439;-79
2021/10/03 09:40:13;;;;;;;3.00;2.60;;;22.80;58.20;;;;;;5219534;28;20056;-79
2021/10/03 09:42:52;;;;;;;4.55;2.33;;;22.80;57.90;;;;;;5189964;28;20049;-79
2021/10/03 09:45:25;;;;;;;3.38;2.60;;;22.80;57.40;;;;;;5219655;28;20037;-81
2021/10/03 09:48:06;;;;;;;4.13;2.42;;;22.80;56.70;;;;;;5223659;28;20490;-79
2021/10/03 09:50:40;;;;;;;2.97;2.65;;;22.80;56.20;;;;;;5229808;28;20049;-79
2021/10/03 09:53:13;;;;;;;3.17;2.70;;;22.80;56.30;;;;;;5213870;28;20052;-79
2021/10/03 09:55:46;;;;;;;2.78;2.30;;;22.80;56.10;;;;;;5221571;28;20509;-78
2021/10/03 09:58:18;;;;;;;4.75;2.90;;;22.80;56.30;;;;;;5221770;28;20040;-80
2021/10/03 10:00:53;;;;;;;4.88;2.63;;;22.80;56.50;;;;;;5221251;28;20061;-80
2021/10/03 10:03:26;;;;;;;3.72;2.53;;;22.80;55.70;;;;;;5220228;28;20063;-79
2021/10/03 10:05:58;;;;;;;3.45;2.78;;;22.80;55.70;;;;;;5222463;28;20048;-79
2021/10/03 10:08:36;;;;;;;4.90;3.15;;;22.90;56.20;;;;;;5200530;28;20048;-79
2021/10/03 10:11:26;;;;;;;3.38;2.38;;;22.90;56.10;;;;;;5210325;28;20641;-78
2021/10/03 10:14:00;;;;;;;3.47;2.65;;;22.90;55.70;;;;;;5224211;28;20055;-80
2021/10/03 10:16:46;;;;;;;4.25;2.80;;;22.90;56.70;;;;;;5200090;28;20617;-80
2021/10/03 10:19:42;;;;;;;3.65;2.65;;;22.90;56.40;;;;;;5228604;28;20036;-80
2021/10/03 10:22:22;;;;;;;5.15;3.03;;;22.90;55.70;;;;;;5226761;28;20044;-79
2021/10/03 10:24:58;;;;;;;3.50;2.38;;;22.90;55.50;;;;;;5184805;28;20063;-82
2021/10/03 10:27:30;;;;;;;3.28;2.90;;;23.00;55.00;;;;;;5210749;28;20394;-80
2021/10/03 10:30:16;;;;;;;5.80;3.08;;;23.00;54.80;;;;;;5226925;28;20049;-79
2021/10/03 10:32:55;;;;;;;5.05;2.50;;;23.00;54.70;;;;;;5187087;28;20427;-80
2021/10/03 10:35:32;;;;;;;9.15;2.70;;;23.00;54.80;;;;;;5171806;28;20048;-78
2021/10/03 10:38:05;;;;;;;8.45;2.80;;;23.00;54.80;;;;;;5194940;28;20411;-80
2021/10/03 10:40:37;;;;;;;4.32;2.67;;;23.00;55.00;;;;;;5206947;28;20044;-79
2021/10/03 10:43:10;;;;;;;4.30;2.57;;;23.10;55.40;;;;;;5229845;28;20398;-80
2021/10/03 10:45:44;;;;;;;4.82;3.30;;;23.10;55.60;;;;;;5207608;28;20486;-82
2021/10/03 10:48:17;;;;;;;5.25;2.58;;;23.10;56.00;;;;;;5183680;28;20048;-82
2021/10/03 10:50:50;;;;;;;4.70;2.90;;;23.20;56.40;;;;;;5202647;28;20052;-83
2021/10/03 10:53:34;;;;;;;4.43;2.47;;;23.30;56.70;;;;;;5205825;28;20057;-80
2021/10/03 10:56:16;;;;;;;5.07;2.90;;;23.30;56.90;;;;;;5221281;28;20053;-80
2021/10/03 10:58:52;;;;;;;7.05;2.65;;;23.40;57.10;;;;;;5200837;28;20509;-82
2021/10/03 11:01:30;;;;;;;4.55;2.50;;;23.50;57.20;;;;;;5217758;28;20055;-82
2021/10/03 11:04:29;;;;;;;4.80;2.53;;;23.60;57.50;;;;;;5214863;28;20075;-81
2021/10/03 11:07:02;;;;;;;4.30;2.70;;;23.70;57.70;;;;;;5207795;28;21472;-80
2021/10/03 11:09:59;;;;;;;3.83;2.65;;;23.70;57.70;;;;;;5206460;28;20048;-80
2021/10/03 11:12:33;;;;;;;3.50;2.70;;;23.80;57.80;;;;;;5223550;28;20413;-82
2021/10/03 11:15:23;;;;;;;3.53;2.50;;;23.90;57.70;;;;;;5213764;28;20049;-80
2021/10/03 11:18:02;;;;;;;5.00;3.10;;;24.00;57.80;;;;;;5220451;28;20414;-82
2021/10/03 11:20:48;;;;;;;5.30;2.95;;;24.00;57.70;;;;;;5215091;28;20037;-79
2021/10/03 11:23:21;;;;;;;4.40;2.72;;;24.10;57.60;;;;;;5208189;28;20044;-83
2021/10/03 11:26:02;;;;;;;4.75;2.80;;;24.20;57.60;;;;;;5200217;28;20064;-80
2021/10/03 11:28:59;;;;;;;10.82;2.90;;;24.20;57.50;;;;;;5201642;28;20060;-78
2021/10/03 11:31:41;;;;;;;6.20;2.97;;;24.40;56.00;;;;;;5200254;28;20055;-78
2021/10/03 11:34:32;;;;;;;4.20;3.08;;;24.40;55.10;;;;;;5221856;28;20051;-80
2021/10/03 11:37:32;;;;;;;3.97;3.03;;;24.50;54.20;;;;;;5220883;28;20052;-79
2021/10/03 11:40:25;;;;;;;3.25;2.83;;;24.60;53.10;;;;;;5215454;28;20041;-79
2021/10/03 11:42:59;;;;;;;4.03;3.10;;;24.70;53.50;;;;;;5214364;28;20037;-80
2021/10/03 11:45:35;;;;;;;5.05;2.63;;;24.80;53.10;;;;;;5199023;28;20524;-82
2021/10/03 11:48:09;;;;;;;4.63;2.63;;;24.90;52.30;;;;;;5211578;28;20376;-81
2021/10/03 11:50:48;;;;;;;2.85;2.47;;;25.00;52.20;;;;;;5199684;28;20055;-81
2021/10/03 11:53:25;;;;;;;4.70;2.92;;;25.10;52.40;;;;;;5217341;28;20049;-81
2021/10/03 11:56:09;;;;;;;4.72;2.78;;;25.20;52.00;;;;;;5224406;28;20049;-81
2021/10/03 11:58:43;;;;;;;4.65;2.80;;;25.30;52.10;;;;;;5221518;28;20044;-82
2021/10/03 12:01:29;;;;;;;4.35;2.72;;;25.30;52.30;;;;;;5220308;28;20060;-80
2021/10/03 12:04:02;;;;;;;5.05;2.50;;;25.30;51.50;;;;;;5202702;28;20041;-81
2021/10/03 12:06:36;;;;;;;9.02;2.95;;;25.40;51.50;;;;;;5199423;28;20044;-82
2021/10/03 12:09:12;;;;;;;4.28;2.67;;;25.40;52.00;;;;;;5218850;28;20052;-82
2021/10/03 12:11:49;;;;;;;4.25;2.50;;;25.40;52.60;;;;;;5219627;28;20052;-79
2021/10/03 12:14:22;;;;;;;7.60;2.63;;;25.40;52.90;;;;;;5216337;28;20048;-82
2021/10/03 12:16:56;;;;;;;3.58;2.53;;;25.40;53.20;;;;;;5200552;28;20525;-82
2021/10/03 12:19:33;;;;;;;3.38;2.67;;;25.40;53.50;;;;;;5206202;28;20059;-79
2021/10/03 12:22:06;;;;;;;3.70;2.47;;;25.30;53.70;;;;;;5196356;28;20044;-82
2021/10/03 12:24:39;;;;;;;4.40;2.47;;;25.40;54.00;;;;;;5212788;28;20048;-82
2021/10/03 12:27:22;;;;;;;4.35;2.88;;;25.40;54.10;;;;;;5196108;28;20379;-81
2021/10/03 12:29:56;;;;;;;4.85;2.67;;;25.40;54.50;;;;;;5221533;28;20048;-81
2021/10/03 12:32:28;;;;;;;2.95;2.10;;;25.30;54.50;;;;;;5222148;28;20044;-80
2021/10/03 12:35:04;;;;;;;3.67;2.35;;;25.40;54.80;;;;;;5225595;28;20044;-80
2021/10/03 12:37:39;;;;;;;4.82;2.67;;;25.40;55.00;;;;;;5179012;28;20059;-82
2021/10/03 12:40:18;;;;;;;4.53;2.13;;;25.40;55.10;;;;;;5212516;28;20041;-80
2021/10/03 12:42:50;;;;;;;5.15;2.03;;;25.40;55.20;;;;;;5202603;28;20511;-81
2021/10/03 12:45:23;;;;;;;;;;;25.40;55.40;;;;;;5190055;28;20048;-81
2021/10/03 12:47:56;;;;;;;5.85;2.78;;;25.50;55.60;;;;;;5220472;28;19924;-81
2021/10/03 12:50:28;;;;;;;2.72;2.50;;;25.50;55.60;;;;;;5221591;28;21018;-81
2021/10/03 12:53:01;;;;;;;3.70;2.58;;;25.50;55.70;;;;;;5221553;28;20051;-81
2021/10/03 12:55:34;;;;;;;3.03;2.17;;;25.60;55.90;;;;;;5220867;28;20085;-80
2021/10/03 12:58:06;;;;;;;3.53;2.40;;;25.60;56.00;;;;;;5172680;28;20510;-80
2021/10/03 13:00:39;;;;;;;4.40;2.60;;;25.70;56.10;;;;;;5199733;28;20044;-80
2021/10/03 13:03:11;;;;;;;6.30;2.75;;;25.70;56.20;;;;;;5220067;28;20445;-80
2021/10/03 13:05:44;;;;;;;8.60;2.70;;;25.70;56.30;;;;;;5222386;28;20067;-80
2021/10/03 13:08:17;;;;;;;5.43;2.37;;;25.70;56.40;;;;;;5200776;28;20108;-81
2021/10/03 13:10:49;;;;;;;6.72;2.60;;;25.70;56.40;;;;;;5203953;28;20072;-80
2021/10/03 13:13:22;;;;;;;8.05;2.60;;;25.90;56.50;;;;;;5195650;28;20049;-80
2021/10/03 13:15:55;;;;;;;11.65;2.42;;;25.90;56.50;;;;;;5215393;28;20051;-80
2021/10/03 13:18:28;;;;;;;7.95;2.40;;;25.90;56.60;;;;;;5213501;28;20051;-82
2021/10/03 13:21:02;;;;;;;5.65;2.70;;;26.00;56.70;;;;;;5221203;28;20403;-81
2021/10/03 13:23:36;;;;;;;14.45;3.80;;;26.00;56.70;;;;;;5209120;28;20051;-80